Time;durP1;ratioP1;P1;durP2;ratioP2;P2;SDS_P1;SDS_P2;PMS_P1;PMS_P2;Temp;Humidity;BMP_temperature;BMP_pressure;BME280_temperature;BME280_humidity;BME280_pressure;Samples;Min_cycle;Max_cycle;Signal;HPM_P1;HPM_P2
2023/12/22 00:01:28;;;;;;;;;6.33;1.00;;;;;;;;5056755;28;45419;-71
2023/12/22 00:03:54;;;;;;;;;7.00;2.00;;;;;;;;5052930;28;45216;-72
2023/12/22 00:06:19;;;;;;;;;9.00;3.00;;;;;;;;5052263;28;46350;-72
2023/12/22 00:08:44;;;;;;;;;3.33;2.00;;;;;;;;5055456;28;45427;-71
2023/12/22 00:11:09;;;;;;;;;3.67;2.67;;;;;;;;5047433;28;45561;-71
2023/12/22 00:13:34;;;;;;;;;7.67;1.00;;;;;;;;5051927;28;45454;-72
2023/12/22 00:16:00;;;;;;;;;6.67;3.00;;;;;;;;5045745;28;45435;-69
2023/12/22 00:18:25;;;;;;;;;4.00;1.00;;;;;;;;5056491;28;45309;-71
2023/12/22 00:20:50;;;;;;;;;9.33;1.00;;;;;;;;5056262;28;45476;-70
2023/12/22 00:23:15;;;;;;;;;3.67;1.00;;;;;;;;5037560;28;45518;-71
2023/12/22 00:25:41;;;;;;;;;5.67;2.00;;;;;;;;5054132;28;47578;-72
2023/12/22 00:28:06;;;;;;;;;3.00;2.00;;;;;;;;5056416;28;45419;-73
2023/12/22 00:30:31;;;;;;;;;2.33;1.33;;;;;;;;5055143;28;45503;-71
2023/12/22 00:32:56;;;;;;;;;3.67;1.00;;;;;;;;5046590;28;45540;-71
2023/12/22 00:35:21;;;;;;;;;6.67;2.00;;;;;;;;5051023;28;46528;-70
2023/12/22 00:37:47;;;;;;;;;2.33;1.00;;;;;;;;5053326;28;45501;-71
2023/12/22 00:40:12;;;;;;;;;4.33;2.00;;;;;;;;5056157;28;45400;-71
2023/12/22 00:42:37;;;;;;;;;2.67;1.00;;;;;;;;5055029;28;45754;-71
2023/12/22 00:45:03;;;;;;;;;7.33;2.00;;;;;;;;5055017;28;45790;-71
2023/12/22 00:47:28;;;;;;;;;8.33;2.00;;;;;;;;5055536;28;45242;-71
2023/12/22 00:49:53;;;;;;;;;3.33;1.67;;;;;;;;5055945;28;45321;-71
2023/12/22 00:52:18;;;;;;;;;4.00;1.00;;;;;;;;5055571;28;45525;-73
2023/12/22 00:54:43;;;;;;;;;3.67;1.00;;;;;;;;5055360;28;45520;-70
2023/12/22 00:57:09;;;;;;;;;4.33;1.33;;;;;;;;5051766;28;45398;-71
2023/12/22 00:59:34;;;;;;;;;2.33;0.00;;;;;;;;5051217;28;45553;-72
2023/12/22 01:01:59;;;;;;;;;8.00;1.00;;;;;;;;5054769;28;45388;-70
2023/12/22 01:04:24;;;;;;;;;5.33;1.33;;;;;;;;5050568;28;45454;-72
2023/12/22 01:06:49;;;;;;;;;3.00;3.00;;;;;;;;5048723;28;45431;-71
2023/12/22 01:09:15;;;;;;;;;3.00;2.00;;;;;;;;5055887;28;45346;-71
2023/12/22 01:11:40;;;;;;;;;2.00;2.00;;;;;;;;5054653;28;45529;-73
2023/12/22 01:14:06;;;;;;;;;6.00;1.00;;;;;;;;5058287;28;47619;-72
2023/12/22 01:16:32;;;;;;;;;6.00;3.00;;;;;;;;5059345;28;45381;-70
2023/12/22 01:18:57;;;;;;;;;7.00;2.00;;;;;;;;5052937;28;45596;-71
2023/12/22 01:21:22;;;;;;;;;1.00;1.00;;;;;;;;5059449;28;45442;-70
2023/12/22 01:23:47;;;;;;;;;3.33;1.67;;;;;;;;5055246;28;45597;-70
2023/12/22 01:26:13;;;;;;;;;5.00;2.00;;;;;;;;5050697;28;45226;-72
2023/12/22 01:28:38;;;;;;;;;4.67;1.00;;;;;;;;5058861;28;45438;-69
2023/12/22 01:31:03;;;;;;;;;1.00;1.00;;;;;;;;5058856;28;45342;-72
2023/12/22 01:33:32;;;;;;;;;4.00;1.00;;;;;;;;5057763;28;47763;-71
2023/12/22 01:35:57;;;;;;;;;4.67;1.67;;;;;;;;5057910;28;45430;-72
2023/12/22 01:38:22;;;;;;;;;5.00;2.00;;;;;;;;5058963;28;45364;-71
2023/12/22 01:40:47;;;;;;;;;2.33;1.00;;;;;;;;5057109;28;45565;-71
2023/12/22 01:43:21;;;;;;;;;7.00;2.67;;;;;;;;5058558;28;45663;-71
2023/12/22 01:45:47;;;;;;;;;3.33;2.00;;;;;;;;5058299;28;45410;-72
2023/12/22 01:48:13;;;;;;;;;2.00;1.00;;;;;;;;5055011;28;45723;-71
2023/12/22 01:50:39;;;;;;;;;5.33;1.00;;;;;;;;5058544;28;45323;-72
2023/12/22 01:53:04;;;;;;;;;3.00;2.00;;;;;;;;5058178;28;45403;-70
2023/12/22 01:55:29;;;;;;;;;3.67;1.00;;;;;;;;5058462;28;45436;-71
2023/12/22 01:57:55;;;;;;;;;3.00;2.00;;;;;;;;5058191;28;45346;-71
2023/12/22 02:00:21;;;;;;;;;5.00;1.33;;;;;;;;5057903;28;45215;-70
2023/12/22 02:02:46;;;;;;;;;5.33;1.33;;;;;;;;5058210;28;46328;-69
2023/12/22 02:05:12;;;;;;;;;6.00;1.33;;;;;;;;5058007;28;45248;-71
2023/12/22 02:07:39;;;;;;;;;3.33;1.67;;;;;;;;5058747;28;45328;-72
2023/12/22 02:10:05;;;;;;;;;5.67;3.00;;;;;;;;5046775;28;45506;-71
2023/12/22 02:12:31;;;;;;;;;7.33;3.00;;;;;;;;5056828;28;45739;-71
2023/12/22 02:14:56;;;;;;;;;8.67;0.00;;;;;;;;5058239;28;45368;-70
2023/12/22 02:17:26;;;;;;;;;5.33;3.00;;;;;;;;5058220;28;45315;-72
2023/12/22 02:19:53;;;;;;;;;4.00;2.00;;;;;;;;5058559;28;45468;-71
2023/12/22 02:22:18;;;;;;;;;2.67;2.67;;;;;;;;5054792;28;46909;-71
2023/12/22 02:24:43;;;;;;;;;4.00;3.00;;;;;;;;5057715;28;45396;-72
2023/12/22 02:27:13;;;;;;;;;2.67;1.00;;;;;;;;5058113;28;45339;-72
2023/12/22 02:29:42;;;;;;;;;2.67;1.00;;;;;;;;5053288;28;45507;-71
2023/12/22 02:32:10;;;;;;;;;3.00;2.00;;;;;;;;5057592;28;45795;-73
2023/12/22 02:34:37;;;;;;;;;5.33;2.00;;;;;;;;5057762;28;45493;-70
2023/12/22 02:37:04;;;;;;;;;3.00;3.00;;;;;;;;5056988;28;45484;-72
2023/12/22 02:39:29;;;;;;;;;1.00;1.00;;;;;;;;5058324;28;45269;-71
2023/12/22 02:41:54;;;;;;;;;10.00;2.00;;;;;;;;5056366;28;46723;-72
2023/12/22 02:44:19;;;;;;;;;6.33;2.67;;;;;;;;5057869;28;45439;-70
2023/12/22 02:46:44;;;;;;;;;2.67;1.00;;;;;;;;5057636;28;45427;-73
2023/12/22 02:49:10;;;;;;;;;3.33;1.00;;;;;;;;5048314;28;45363;-71
2023/12/22 02:51:35;;;;;;;;;1.67;1.00;;;;;;;;5053863;28;45739;-73
2023/12/22 02:54:00;;;;;;;;;3.67;1.67;;;;;;;;5057692;28;46101;-72
2023/12/22 02:56:26;;;;;;;;;2.00;2.00;;;;;;;;5052070;28;46967;-71
2023/12/22 02:58:51;;;;;;;;;4.00;2.00;;;;;;;;5056619;28;45358;-70
2023/12/22 03:01:16;;;;;;;;;3.00;2.33;;;;;;;;5057232;28;45741;-70
2023/12/22 03:03:41;;;;;;;;;4.00;1.00;;;;;;;;5057373;28;45227;-71
2023/12/22 03:06:06;;;;;;;;;6.00;1.33;;;;;;;;5057049;28;45712;-71
2023/12/22 03:08:32;;;;;;;;;9.33;2.00;;;;;;;;5057697;28;45460;-70
2023/12/22 03:10:57;;;;;;;;;2.33;2.00;;;;;;;;5038651;28;47278;-71
2023/12/22 03:13:22;;;;;;;;;3.00;2.00;;;;;;;;5047267;28;45361;-71
2023/12/22 03:15:47;;;;;;;;;5.33;1.00;;;;;;;;5057319;28;45355;-73
2023/12/22 03:18:12;;;;;;;;;1.67;1.00;;;;;;;;5054949;28;46016;-71
2023/12/22 03:20:38;;;;;;;;;3.00;1.00;;;;;;;;5057058;28;47337;-70
2023/12/22 03:23:03;;;;;;;;;7.67;2.00;;;;;;;;5056597;28;45370;-69
2023/12/22 03:25:28;;;;;;;;;2.00;2.00;;;;;;;;5054156;28;45383;-73
2023/12/22 03:27:53;;;;;;;;;4.00;2.33;;;;;;;;5057369;28;45191;-71
2023/12/22 03:30:19;;;;;;;;;3.00;2.00;;;;;;;;5056609;28;45362;-71
2023/12/22 03:32:44;;;;;;;;;4.67;2.00;;;;;;;;5057270;28;45119;-70
2023/12/22 03:35:09;;;;;;;;;3.00;1.33;;;;;;;;5036809;28;46576;-71
2023/12/22 03:37:34;;;;;;;;;4.67;2.00;;;;;;;;5057337;28;45597;-70
2023/12/22 03:39:59;;;;;;;;;4.67;1.00;;;;;;;;5056676;28;45797;-72
2023/12/22 03:42:25;;;;;;;;;2.00;2.00;;;;;;;;5056869;28;45355;-71
2023/12/22 03:44:50;;;;;;;;;4.00;2.00;;;;;;;;5057127;28;45367;-73
2023/12/22 03:47:15;;;;;;;;;5.33;2.00;;;;;;;;5054279;28;45318;-71
2023/12/22 03:49:40;;;;;;;;;4.33;1.67;;;;;;;;5050120;28;47459;-73
2023/12/22 03:52:05;;;;;;;;;3.00;1.00;;;;;;;;5046269;28;45406;-71
2023/12/22 03:54:31;;;;;;;;;5.67;1.00;;;;;;;;5057103;28;45510;-70
2023/12/22 03:56:56;;;;;;;;;2.67;1.00;;;;;;;;5056111;28;45366;-73
2023/12/22 03:59:21;;;;;;;;;2.00;2.00;;;;;;;;5055399;28;45679;-71
2023/12/22 04:01:53;;;;;;;;;1.00;1.00;;;;;;;;5056910;28;45224;-72
2023/12/22 04:04:18;;;;;;;;;4.33;2.00;;;;;;;;5056199;28;45257;-72
2023/12/22 04:06:43;;;;;;;;;2.00;2.00;;;;;;;;5056798;28;45401;-73
2023/12/22 04:09:08;;;;;;;;;5.67;0.33;;;;;;;;5054400;28;47252;-70
2023/12/22 04:11:36;;;;;;;;;2.33;1.00;;;;;;;;5056747;28;45489;-71
2023/12/22 04:14:01;;;;;;;;;3.00;1.33;;;;;;;;5056580;28;45342;-73
2023/12/22 04:16:26;;;;;;;;;3.67;0.00;;;;;;;;5055742;28;45358;-70
2023/12/22 04:18:51;;;;;;;;;7.67;1.00;;;;;;;;5056237;28;46154;-72
2023/12/22 04:21:16;;;;;;;;;0.00;0.00;;;;;;;;5055204;28;45221;-73
2023/12/22 04:23:42;;;;;;;;;0.00;0.00;;;;;;;;5056371;28;45265;-71
2023/12/22 04:26:07;;;;;;;;;3.33;0.00;;;;;;;;5056490;28;45295;-73
2023/12/22 04:28:32;;;;;;;;;0.67;0.00;;;;;;;;5056173;28;46080;-71
2023/12/22 04:30:57;;;;;;;;;1.00;0.00;;;;;;;;5055431;28;45440;-70
2023/12/22 04:33:22;;;;;;;;;4.00;0.67;;;;;;;;5054618;28;45247;-71
2023/12/22 04:35:48;;;;;;;;;3.00;0.67;;;;;;;;5056314;28;45403;-70
2023/12/22 04:38:13;;;;;;;;;1.33;0.00;;;;;;;;5055461;28;45338;-71
2023/12/22 04:40:38;;;;;;;;;0.00;0.00;;;;;;;;5056093;28;45374;-71
2023/12/22 04:43:03;;;;;;;;;1.00;0.00;;;;;;;;5053325;28;45455;-70
2023/12/22 04:45:28;;;;;;;;;1.33;1.00;;;;;;;;5057832;28;45344;-72
2023/12/22 04:47:54;;;;;;;;;2.00;0.00;;;;;;;;5058795;28;45721;-72
2023/12/22 04:50:19;;;;;;;;;3.00;0.33;;;;;;;;5051819;28;45498;-71
2023/12/22 04:52:44;;;;;;;;;2.00;0.00;;;;;;;;5057611;28;45331;-72
2023/12/22 04:55:09;;;;;;;;;1.00;1.00;;;;;;;;5041337;28;45666;-72
2023/12/22 04:57:34;;;;;;;;;2.33;1.00;;;;;;;;5059117;28;46484;-71
2023/12/22 04:59:59;;;;;;;;;2.33;0.00;;;;;;;;5059145;28;45476;-72
2023/12/22 05:02:25;;;;;;;;;0.00;0.00;;;;;;;;5059382;28;45216;-71
2023/12/22 05:04:50;;;;;;;;;1.67;1.00;;;;;;;;5051133;28;45506;-72
2023/12/22 05:07:15;;;;;;;;;1.67;0.00;;;;;;;;5059502;28;46458;-70
2023/12/22 05:09:41;;;;;;;;;3.33;1.00;;;;;;;;5050490;28;45453;-70
2023/12/22 05:12:06;;;;;;;;;1.00;1.00;;;;;;;;5059588;28;45207;-71
2023/12/22 05:14:31;;;;;;;;;0.00;0.00;;;;;;;;5059131;28;45459;-70
2023/12/22 05:16:57;;;;;;;;;0.00;0.00;;;;;;;;5056849;28;45407;-72
2023/12/22 05:19:22;;;;;;;;;2.00;0.00;;;;;;;;5059335;28;45208;-70
2023/12/22 05:21:49;;;;;;;;;2.00;1.00;;;;;;;;5059300;28;45188;-70
2023/12/22 05:24:14;;;;;;;;;2.33;0.67;;;;;;;;5059245;28;45598;-72
2023/12/22 05:26:39;;;;;;;;;2.33;0.00;;;;;;;;5058795;28;46490;-72
2023/12/22 05:29:04;;;;;;;;;0.00;0.00;;;;;;;;5058348;28;45223;-72
2023/12/22 05:31:30;;;;;;;;;2.00;0.00;;;;;;;;5059175;28;45374;-71
2023/12/22 05:33:56;;;;;;;;;2.00;1.00;;;;;;;;5059168;28;45511;-70
2023/12/22 05:36:21;;;;;;;;;0.00;0.00;;;;;;;;5055893;28;46499;-70
2023/12/22 05:38:47;;;;;;;;;0.33;0.00;;;;;;;;5055001;28;45493;-72
2023/12/22 05:41:12;;;;;;;;;0.00;0.00;;;;;;;;5058147;28;45388;-71
2023/12/22 05:43:38;;;;;;;;;3.00;0.00;;;;;;;;5058290;28;45445;-69
2023/12/22 05:46:03;;;;;;;;;3.33;0.00;;;;;;;;5057315;28;45534;-69
2023/12/22 05:48:28;;;;;;;;;0.00;0.00;;;;;;;;5040282;28;45602;-69
2023/12/22 05:53:28;;;;;;;;;2.00;0.00;;;;;;;;5013655;22;46835;-70
2023/12/22 05:55:54;;;;;;;;;0.67;0.00;;;;;;;;5077916;28;45464;-70
2023/12/22 05:58:19;;;;;;;;;0.00;0.00;;;;;;;;5067367;28;45370;-70
2023/12/22 06:00:44;;;;;;;;;2.67;0.00;;;;;;;;5078230;28;45201;-70
2023/12/22 06:03:09;;;;;;;;;0.00;0.00;;;;;;;;5069084;28;45277;-70
2023/12/22 06:05:34;;;;;;;;;3.00;0.00;;;;;;;;5071386;28;46102;-72
2023/12/22 06:08:00;;;;;;;;;0.00;0.00;;;;;;;;5067826;28;45370;-71
2023/12/22 06:10:25;;;;;;;;;0.00;0.00;;;;;;;;5071110;28;45240;-70
2023/12/22 06:12:50;;;;;;;;;3.00;0.00;;;;;;;;5074116;28;45270;-70
2023/12/22 06:15:15;;;;;;;;;2.00;0.00;;;;;;;;5075832;28;46484;-71
2023/12/22 06:17:40;;;;;;;;;0.00;0.00;;;;;;;;5074875;28;45349;-69
2023/12/22 06:20:06;;;;;;;;;2.33;0.00;;;;;;;;5075414;28;45473;-70
2023/12/22 06:22:32;;;;;;;;;0.67;0.67;;;;;;;;5077045;28;45501;-70
2023/12/22 06:24:57;;;;;;;;;2.00;0.00;;;;;;;;5077449;28;45676;-71
2023/12/22 06:27:23;;;;;;;;;0.00;0.00;;;;;;;;5075895;28;45210;-71
2023/12/22 06:29:48;;;;;;;;;0.33;0.00;;;;;;;;5078209;28;45594;-70
2023/12/22 06:32:13;;;;;;;;;1.33;0.00;;;;;;;;5074644;28;45437;-70
2023/12/22 06:34:38;;;;;;;;;0.67;0.00;;;;;;;;5073522;28;45536;-70
2023/12/22 06:37:03;;;;;;;;;0.67;0.00;;;;;;;;5070189;28;45383;-71
2023/12/22 06:39:29;;;;;;;;;3.67;1.00;;;;;;;;5068113;28;45575;-70
2023/12/22 06:41:54;;;;;;;;;3.00;1.00;;;;;;;;5068181;28;45359;-70
2023/12/22 06:44:19;;;;;;;;;2.00;0.00;;;;;;;;5071961;28;45463;-69
2023/12/22 06:46:44;;;;;;;;;2.00;0.00;;;;;;;;5067636;28;45142;-69
2023/12/22 06:49:10;;;;;;;;;0.00;0.00;;;;;;;;5077896;28;45568;-71
2023/12/22 06:51:35;;;;;;;;;1.00;0.00;;;;;;;;5075389;28;45546;-71
2023/12/22 06:54:01;;;;;;;;;0.00;0.00;;;;;;;;5075199;28;47455;-69
2023/12/22 06:56:30;;;;;;;;;0.00;0.00;;;;;;;;5075636;28;45456;-71
2023/12/22 06:58:57;;;;;;;;;0.00;0.00;;;;;;;;5075680;28;45294;-70
2023/12/22 07:01:32;;;;;;;;;0.00;0.00;;;;;;;;5073350;28;45570;-69
2023/12/22 07:03:59;;;;;;;;;2.00;0.67;;;;;;;;5076973;28;47277;-69
2023/12/22 07:06:27;;;;;;;;;0.00;0.00;;;;;;;;5074259;28;45526;-69
2023/12/22 07:08:56;;;;;;;;;0.00;0.00;;;;;;;;5069495;28;45413;-70
2023/12/22 07:11:21;;;;;;;;;0.33;0.00;;;;;;;;5077303;28;45435;-70
2023/12/22 07:13:46;;;;;;;;;2.00;0.00;;;;;;;;5075592;28;45507;-71
2023/12/22 07:16:12;;;;;;;;;4.00;1.00;;;;;;;;5067685;28;45776;-71
2023/12/22 07:18:37;;;;;;;;;1.00;0.00;;;;;;;;5074677;28;45425;-69
2023/12/22 07:21:03;;;;;;;;;0.33;0.00;;;;;;;;5066589;28;45477;-71
2023/12/22 07:23:28;;;;;;;;;3.00;0.00;;;;;;;;5071063;28;45778;-71
2023/12/22 07:25:53;;;;;;;;;1.00;0.00;;;;;;;;5072799;28;45406;-70
2023/12/22 07:28:18;;;;;;;;;0.67;0.00;;;;;;;;5067961;28;45450;-69
2023/12/22 07:30:43;;;;;;;;;2.33;0.00;;;;;;;;5076398;28;45575;-69
2023/12/22 07:33:08;;;;;;;;;3.00;0.00;;;;;;;;5076646;28;46420;-69
2023/12/22 07:35:34;;;;;;;;;2.00;0.00;;;;;;;;5076405;28;45347;-70
2023/12/22 07:37:59;;;;;;;;;0.00;0.00;;;;;;;;5076571;28;45425;-71
2023/12/22 07:40:24;;;;;;;;;3.00;1.00;;;;;;;;5067667;28;45664;-68
2023/12/22 07:42:50;;;;;;;;;0.33;0.33;;;;;;;;5076308;28;46351;-69
2023/12/22 07:45:15;;;;;;;;;1.00;0.00;;;;;;;;5076245;28;45428;-70
2023/12/22 07:47:41;;;;;;;;;3.00;0.00;;;;;;;;5076359;28;45600;-69
2023/12/22 07:50:08;;;;;;;;;0.67;0.00;;;;;;;;5076593;28;45606;-70
2023/12/22 07:52:33;;;;;;;;;1.00;1.00;;;;;;;;5076029;28;46291;-70
2023/12/22 07:54:59;;;;;;;;;2.00;0.00;;;;;;;;5076334;28;45314;-69
2023/12/22 07:57:24;;;;;;;;;1.33;1.00;;;;;;;;5076038;28;45408;-69
2023/12/22 07:59:49;;;;;;;;;1.00;0.00;;;;;;;;5076191;28;45562;-69
2023/12/22 08:02:14;;;;;;;;;0.67;0.00;;;;;;;;5075994;28;46362;-69
2023/12/22 08:04:41;;;;;;;;;0.00;0.00;;;;;;;;5075188;28;45456;-74
2023/12/22 08:07:06;;;;;;;;;0.00;0.00;;;;;;;;5073705;28;45240;-71
2023/12/22 08:09:32;;;;;;;;;0.00;0.00;;;;;;;;5076040;28;45295;-69
2023/12/22 08:11:57;;;;;;;;;0.00;0.00;;;;;;;;5074342;28;46598;-69
2023/12/22 08:14:23;;;;;;;;;1.00;0.00;;;;;;;;5073478;28;45239;-69
2023/12/22 08:16:48;;;;;;;;;0.00;0.00;;;;;;;;5076132;28;45199;-70
2023/12/22 08:19:13;;;;;;;;;1.00;0.00;;;;;;;;5076202;27;45605;-69
2023/12/22 08:21:38;;;;;;;;;0.00;0.00;;;;;;;;5076370;28;46073;-70
2023/12/22 08:24:03;;;;;;;;;1.00;0.00;;;;;;;;5076848;28;45477;-70
2023/12/22 08:26:29;;;;;;;;;1.00;0.00;;;;;;;;5079349;28;45249;-69
2023/12/22 08:28:54;;;;;;;;;1.00;0.00;;;;;;;;5079809;28;45625;-70
2023/12/22 08:31:19;;;;;;;;;0.00;0.00;;;;;;;;5068926;28;46285;-70
2023/12/22 08:33:45;;;;;;;;;0.00;0.00;;;;;;;;5074182;28;45558;-69
2023/12/22 08:36:10;;;;;;;;;0.00;0.00;;;;;;;;5079205;27;45546;-69
2023/12/22 08:38:36;;;;;;;;;0.00;0.00;;;;;;;;5079510;28;45225;-71
2023/12/22 08:41:01;;;;;;;;;0.00;0.00;;;;;;;;5072618;28;46597;-70
2023/12/22 08:43:27;;;;;;;;;0.00;0.00;;;;;;;;5072824;28;45323;-71
2023/12/22 08:45:52;;;;;;;;;0.67;0.67;;;;;;;;5074789;28;45370;-70
2023/12/22 08:48:17;;;;;;;;;1.67;1.00;;;;;;;;5069584;28;45385;-70
2023/12/22 08:50:42;;;;;;;;;1.00;0.00;;;;;;;;5078397;28;45277;-69
2023/12/22 08:53:07;;;;;;;;;3.67;1.00;;;;;;;;5078657;28;45539;-69
2023/12/22 08:55:32;;;;;;;;;0.00;0.00;;;;;;;;5078900;28;45638;-70
2023/12/22 08:57:58;;;;;;;;;0.00;0.00;;;;;;;;5076451;28;45358;-71
2023/12/22 09:00:23;;;;;;;;;2.67;1.00;;;;;;;;5076888;28;46473;-70
2023/12/22 09:02:48;;;;;;;;;1.00;1.00;;;;;;;;5078745;28;45487;-70
2023/12/22 09:05:13;;;;;;;;;2.33;0.00;;;;;;;;5078893;28;45417;-69
2023/12/22 09:07:39;;;;;;;;;2.33;0.00;;;;;;;;5076902;27;45265;-69
2023/12/22 09:10:04;;;;;;;;;1.00;0.00;;;;;;;;5076425;28;46567;-69
2023/12/22 09:12:30;;;;;;;;;1.00;0.00;;;;;;;;5052960;28;45949;-69
2023/12/22 09:14:55;;;;;;;;;1.00;0.00;;;;;;;;5073032;28;45297;-70
2023/12/22 09:17:20;;;;;;;;;2.00;0.00;;;;;;;;5074410;28;45527;-69
2023/12/22 09:19:45;;;;;;;;;0.67;0.00;;;;;;;;5078691;28;45444;-70
2023/12/22 09:22:10;;;;;;;;;2.00;0.67;;;;;;;;5070975;28;45515;-70
2023/12/22 09:24:36;;;;;;;;;2.00;1.00;;;;;;;;5077737;28;45449;-69
2023/12/22 09:27:02;;;;;;;;;1.00;1.00;;;;;;;;5069068;28;45346;-68
2023/12/22 09:29:33;;;;;;;;;1.00;1.00;;;;;;;;5076422;27;47501;-71
2023/12/22 09:31:58;;;;;;;;;0.67;0.67;;;;;;;;5075232;28;45480;-68
2023/12/22 09:34:25;;;;;;;;;2.00;0.00;;;;;;;;5067493;28;45531;-69
2023/12/22 09:36:50;;;;;;;;;3.00;0.00;;;;;;;;5079094;28;45533;-70
2023/12/22 09:39:16;;;;;;;;;2.00;1.00;;;;;;;;5079015;28;47312;-69
2023/12/22 09:41:47;;;;;;;;;0.00;0.00;;;;;;;;5079190;28;45397;-69
2023/12/22 09:44:12;;;;;;;;;1.00;1.00;;;;;;;;5079082;28;45387;-69
2023/12/22 09:46:38;;;;;;;;;2.00;1.00;;;;;;;;5074200;28;45314;-70
2023/12/22 09:49:04;;;;;;;;;0.00;0.00;;;;;;;;5076269;28;46345;-69
2023/12/22 09:51:30;;;;;;;;;2.33;0.00;;;;;;;;5078834;28;45312;-69
2023/12/22 09:53:56;;;;;;;;;0.00;0.00;;;;;;;;5078816;28;45490;-69
2023/12/22 09:56:22;;;;;;;;;1.33;0.00;;;;;;;;5072658;28;45371;-69
2023/12/22 09:58:49;;;;;;;;;2.00;0.33;;;;;;;;5076283;28;47527;-68
2023/12/22 10:01:15;;;;;;;;;2.00;0.00;;;;;;;;5078689;28;45412;-69
2023/12/22 10:03:42;;;;;;;;;0.00;0.00;;;;;;;;5072340;28;45417;-68
2023/12/22 10:06:08;;;;;;;;;0.00;0.00;;;;;;;;5076606;28;45292;-70
2023/12/22 10:08:34;;;;;;;;;1.00;1.00;;;;;;;;5078533;28;45948;-69
2023/12/22 10:10:59;;;;;;;;;2.00;0.00;;;;;;;;5078456;28;45519;-70
2023/12/22 10:13:27;;;;;;;;;1.67;1.00;;;;;;;;5074891;28;45351;-70
2023/12/22 10:15:54;;;;;;;;;4.00;1.00;;;;;;;;5073957;28;45865;-69
2023/12/22 10:18:19;;;;;;;;;3.67;0.00;;;;;;;;5072666;28;46212;-68
2023/12/22 10:20:45;;;;;;;;;0.00;0.00;;;;;;;;5078533;28;45276;-68
2023/12/22 10:23:10;;;;;;;;;2.00;0.00;;;;;;;;5077610;28;45494;-70
2023/12/22 10:25:36;;;;;;;;;2.67;1.00;;;;;;;;5055131;28;45618;-68
2023/12/22 10:28:01;;;;;;;;;8.33;1.00;;;;;;;;5070375;28;45807;-68
2023/12/22 10:30:27;;;;;;;;;1.00;1.00;;;;;;;;5067955;28;45503;-68
2023/12/22 10:32:53;;;;;;;;;0.33;0.00;;;;;;;;5059996;28;45395;-69
2023/12/22 10:35:19;;;;;;;;;1.67;1.00;;;;;;;;5073253;28;45444;-70
2023/12/22 10:37:48;;;;;;;;;4.00;1.00;;;;;;;;5071075;28;46775;-70
2023/12/22 10:40:13;;;;;;;;;2.00;1.00;;;;;;;;5074700;28;45421;-69
2023/12/22 10:42:40;;;;;;;;;0.00;0.00;;;;;;;;5077780;28;45708;-69
2023/12/22 10:45:06;;;;;;;;;2.00;1.00;;;;;;;;5074770;28;45517;-69
2023/12/22 10:47:31;;;;;;;;;1.33;1.33;;;;;;;;5078172;28;45271;-69
2023/12/22 10:49:56;;;;;;;;;0.00;0.00;;;;;;;;5078081;28;45413;-70
2023/12/22 10:52:22;;;;;;;;;1.00;1.00;;;;;;;;5077897;28;45720;-69
2023/12/22 10:54:48;;;;;;;;;6.00;1.67;;;;;;;;5076967;28;45441;-70
2023/12/22 10:57:16;;;;;;;;;1.00;1.00;;;;;;;;5073716;28;47356;-69
2023/12/22 10:59:46;;;;;;;;;1.00;1.00;;;;;;;;5071965;28;45291;-69
2023/12/22 11:02:14;;;;;;;;;3.00;0.33;;;;;;;;5063018;28;45379;-69
2023/12/22 11:04:40;;;;;;;;;0.00;0.00;;;;;;;;5076446;28;45627;-72
2023/12/22 11:07:07;;;;;;;;;5.00;1.00;;;;;;;;5075927;28;46189;-68
2023/12/22 11:09:34;;;;;;;;;2.33;1.00;;;;;;;;5074044;28;45236;-68
2023/12/22 11:12:00;;;;;;;;;2.33;0.00;;;;;;;;5058074;28;45370;-68
2023/12/22 11:14:26;;;;;;;;;4.67;2.00;;;;;;;;5072398;28;45323;-67
2023/12/22 11:16:53;;;;;;;;;5.33;2.00;;;;;;;;5068309;28;45564;-68
2023/12/22 11:19:19;;;;;;;;;2.00;1.00;;;;;;;;5070669;28;45327;-69
2023/12/22 11:21:44;;;;;;;;;6.00;1.33;;;;;;;;5065648;28;45243;-70
2023/12/22 11:24:10;;;;;;;;;10.00;1.00;;;;;;;;5073878;28;45430;-68
2023/12/22 11:26:37;;;;;;;;;4.00;2.00;;;;;;;;5075710;28;47585;-68
2023/12/22 11:29:02;;;;;;;;;3.00;2.00;;;;;;;;5067309;28;45193;-70
2023/12/22 11:31:27;;;;;;;;;2.00;2.00;;;;;;;;5072142;28;45221;-67
2023/12/22 11:33:54;;;;;;;;;4.00;1.00;;;;;;;;5076593;28;45170;-69
2023/12/22 11:36:19;;;;;;;;;7.33;2.00;;;;;;;;5065446;28;45484;-68
2023/12/22 11:38:45;;;;;;;;;3.00;2.00;;;;;;;;5075791;28;45308;-69
2023/12/22 11:41:22;;;;;;;;;1.67;1.00;;;;;;;;5068663;28;45452;-68
2023/12/22 11:43:48;;;;;;;;;3.00;1.00;;;;;;;;5071738;28;45585;-69
2023/12/22 11:46:15;;;;;;;;;7.00;1.00;;;;;;;;5075609;28;45424;-69
2023/12/22 11:48:46;;;;;;;;;5.00;2.33;;;;;;;;5073698;28;45494;-69
2023/12/22 11:51:13;;;;;;;;;4.67;1.33;;;;;;;;5064116;28;45458;-69
2023/12/22 11:53:38;;;;;;;;;1.33;1.33;;;;;;;;5028666;28;1129376;-69
2023/12/22 11:56:05;;;;;;;;;2.67;1.00;;;;;;;;5076139;28;46682;-68
2023/12/22 11:58:39;;;;;;;;;4.00;2.00;;;;;;;;5074671;28;45407;-69
2023/12/22 12:01:05;;;;;;;;;2.33;1.67;;;;;;;;5076279;28;45513;-70
2023/12/22 12:03:31;;;;;;;;;7.00;2.00;;;;;;;;5067635;28;45416;-69
2023/12/22 12:06:16;;;;;;;;;3.67;1.00;;;;;;;;5075115;28;45649;-69
2023/12/22 12:08:42;;;;;;;;;6.67;1.67;;;;;;;;5077203;28;45316;-69
2023/12/22 12:11:07;;;;;;;;;9.33;3.00;;;;;;;;5077010;28;45271;-69
2023/12/22 12:13:33;;;;;;;;;3.67;1.00;;;;;;;;5075605;28;45447;-68
2023/12/22 12:16:00;;;;;;;;;5.67;2.00;;;;;;;;5070735;28;47441;-69
2023/12/22 12:18:27;;;;;;;;;5.33;2.00;;;;;;;;5065448;28;45472;-68
2023/12/22 12:20:52;;;;;;;;;6.67;1.67;;;;;;;;5075206;28;45542;-68
2023/12/22 12:23:18;;;;;;;;;6.00;1.00;;;;;;;;5076858;28;45483;-69
2023/12/22 12:25:43;;;;;;;;;1.67;1.67;;;;;;;;5076669;28;45502;-68
2023/12/22 12:28:09;;;;;;;;;5.67;3.00;;;;;;;;5076772;28;45411;-68
2023/12/22 12:30:35;;;;;;;;;4.33;0.67;;;;;;;;5077204;28;45276;-69
2023/12/22 12:33:10;;;;;;;;;3.67;1.00;;;;;;;;5063262;28;45519;-68
2023/12/22 12:35:35;;;;;;;;;1.00;1.00;;;;;;;;5075257;28;45738;-68
2023/12/22 12:38:01;;;;;;;;;3.67;2.33;;;;;;;;5054242;28;46228;-67
2023/12/22 12:40:29;;;;;;;;;7.67;1.00;;;;;;;;5073146;28;45375;-69
2023/12/22 12:42:54;;;;;;;;;9.33;2.33;;;;;;;;5070770;28;45465;-68
2023/12/22 12:45:23;;;;;;;;;8.33;2.67;;;;;;;;5069837;28;47836;-68
2023/12/22 12:47:55;;;;;;;;;7.67;2.33;;;;;;;;5067062;28;45371;-69
2023/12/22 12:50:24;;;;;;;;;2.67;2.33;;;;;;;;5072347;28;45496;-68
2023/12/22 12:52:50;;;;;;;;;8.00;4.33;;;;;;;;5072064;28;45354;-69
2023/12/22 12:55:18;;;;;;;;;10.00;3.00;;;;;;;;5069706;28;45629;-68
2023/12/22 12:57:43;;;;;;;;;7.33;2.33;;;;;;;;5070728;28;45445;-68
2023/12/22 13:00:09;;;;;;;;;4.00;3.00;;;;;;;;5066781;28;45476;-68
2023/12/22 13:02:35;;;;;;;;;4.00;1.33;;;;;;;;5074440;28;45482;-69
2023/12/22 13:05:03;;;;;;;;;4.67;1.00;;;;;;;;5069516;28;47392;-68
2023/12/22 13:07:29;;;;;;;;;2.00;2.00;;;;;;;;5071933;28;45465;-68
2023/12/22 13:09:56;;;;;;;;;3.33;2.00;;;;;;;;5072624;28;45398;-68
2023/12/22 13:12:22;;;;;;;;;5.67;3.00;;;;;;;;5074239;28;45604;-69
2023/12/22 13:14:47;;;;;;;;;4.33;3.00;;;;;;;;5076183;28;46541;-68
2023/12/22 13:17:12;;;;;;;;;4.00;2.33;;;;;;;;5077695;28;45432;-68
2023/12/22 13:19:37;;;;;;;;;8.33;3.33;;;;;;;;5078027;28;45433;-68
2023/12/22 13:22:03;;;;;;;;;3.67;2.33;;;;;;;;5077789;28;45474;-69
2023/12/22 13:24:28;;;;;;;;;6.00;1.00;;;;;;;;5071221;28;47385;-68
2023/12/22 13:27:03;;;;;;;;;7.67;2.00;;;;;;;;5076310;28;45536;-68
2023/12/22 13:29:28;;;;;;;;;4.67;3.00;;;;;;;;5070872;28;45470;-68
2023/12/22 13:31:54;;;;;;;;;3.00;2.00;;;;;;;;5054821;28;45352;-69
2023/12/22 13:34:19;;;;;;;;;2.00;2.00;;;;;;;;5073918;28;46541;-68
2023/12/22 13:36:44;;;;;;;;;7.67;3.00;;;;;;;;5077289;28;45302;-69
2023/12/22 13:39:09;;;;;;;;;3.00;1.00;;;;;;;;5072966;28;45425;-70
2023/12/22 13:41:37;;;;;;;;;3.00;0.00;;;;;;;;5072365;28;45562;-69
2023/12/22 13:44:04;;;;;;;;;4.67;2.67;;;;;;;;5075362;28;45639;-69
2023/12/22 13:46:29;;;;;;;;;10.00;2.00;;;;;;;;5075190;28;45396;-68
2023/12/22 13:48:55;;;;;;;;;5.00;1.00;;;;;;;;5073627;28;46725;-68
2023/12/22 13:51:20;;;;;;;;;5.00;2.00;;;;;;;;5075327;28;45487;-68
2023/12/22 13:53:48;;;;;;;;;5.00;2.00;;;;;;;;5075929;28;45581;-67
2023/12/22 13:56:13;;;;;;;;;5.67;2.00;;;;;;;;5074223;28;45383;-68
2023/12/22 13:58:47;;;;;;;;;4.67;1.33;;;;;;;;5074432;28;45516;-68
2023/12/22 14:01:15;;;;;;;;;3.67;1.33;;;;;;;;5076482;28;45562;-68
2023/12/22 14:03:40;;;;;;;;;3.67;2.00;;;;;;;;5077601;28;46512;-68
2023/12/22 14:06:08;;;;;;;;;7.00;2.67;;;;;;;;5075047;28;45633;-68
2023/12/22 14:08:34;;;;;;;;;3.33;1.33;;;;;;;;5077498;28;45469;-68
2023/12/22 14:10:59;;;;;;;;;7.67;0.00;;;;;;;;5077778;28;45413;-67
2023/12/22 14:13:24;;;;;;;;;1.33;1.33;;;;;;;;5073516;28;46463;-68
2023/12/22 14:15:49;;;;;;;;;2.00;2.00;;;;;;;;5071793;28;45657;-68
2023/12/22 14:18:14;;;;;;;;;5.33;1.33;;;;;;;;5070393;28;46566;-68
2023/12/22 14:20:40;;;;;;;;;7.67;2.33;;;;;;;;5075010;28;45433;-67
2023/12/22 14:23:05;;;;;;;;;2.00;1.00;;;;;;;;5076355;28;47394;-68
2023/12/22 14:25:31;;;;;;;;;7.33;3.00;;;;;;;;5073549;28;45443;-68
2023/12/22 14:27:58;;;;;;;;;3.00;1.00;;;;;;;;5074187;28;45453;-68
2023/12/22 14:30:23;;;;;;;;;4.67;1.00;;;;;;;;5071232;28;45485;-67
2023/12/22 14:32:49;;;;;;;;;3.67;2.00;;;;;;;;5071256;28;45891;-68
2023/12/22 14:35:14;;;;;;;;;2.00;2.00;;;;;;;;5074427;28;45441;-68
2023/12/22 14:37:39;;;;;;;;;4.00;2.00;;;;;;;;5068870;28;45378;-69